createdAt,value
2022-10-08T00:00:53.760Z,17.23
2022-10-08T00:03:25.470Z,17.21
2022-10-08T00:06:12.702Z,17.16
2022-10-08T00:08:41.739Z,17.18
2022-10-08T00:11:12.142Z,17.16
2022-10-08T00:13:44.730Z,17.15
2022-10-08T00:16:14.251Z,17.12
2022-10-08T00:18:42.423Z,17.10
2022-10-08T00:21:14.362Z,17.09
2022-10-08T00:23:41.547Z,17.07
2022-10-08T00:26:08.428Z,17.06
2022-10-08T00:28:40.754Z,17.04
2022-10-08T00:31:14.007Z,17.02
2022-10-08T00:33:40.324Z,17.02
2022-10-08T00:36:09.858Z,17.02
2022-10-08T00:38:36.953Z,17.01
2022-10-08T00:41:05.717Z,16.99
2022-10-08T00:43:45.241Z,16.97
2022-10-08T00:46:31.546Z,16.94
2022-10-08T00:49:20.061Z,16.92
2022-10-08T00:51:55.590Z,16.92
2022-10-08T00:54:23.152Z,16.93
2022-10-08T00:56:52.685Z,16.91
2022-10-08T00:59:20.257Z,16.90
2022-10-08T01:01:47.056Z,16.91
2022-10-08T01:04:14.855Z,16.91
2022-10-08T01:07:04.276Z,16.90
2022-10-08T01:09:38.139Z,16.90
2022-10-08T01:12:19.180Z,16.94
2022-10-08T01:14:56.003Z,16.95
2022-10-08T01:17:31.425Z,16.95
2022-10-08T01:20:38.945Z,16.95
2022-10-08T01:23:29.305Z,17.00
2022-10-08T01:26:20.694Z,17.03
2022-10-08T01:28:59.613Z,17.09
2022-10-08T01:31:42.542Z,17.10
2022-10-08T01:34:17.505Z,17.13
2022-10-08T01:36:47.336Z,17.16
2022-10-08T01:39:18.644Z,17.17
2022-10-08T01:41:51.357Z,17.18
2022-10-08T01:44:30.234Z,17.19
2022-10-08T01:46:59.285Z,17.24
2022-10-08T01:49:34.126Z,17.25
2022-10-08T01:52:08.452Z,17.27
2022-10-08T01:54:37.260Z,17.30
2022-10-08T02:00:54.432Z,17.34
2022-10-08T02:03:21.001Z,17.36
2022-10-08T02:05:51.955Z,17.36
2022-10-08T02:08:18.818Z,17.36
2022-10-08T02:10:46.580Z,17.36
2022-10-08T02:13:13.119Z,17.35
2022-10-08T02:15:59.729Z,17.32
2022-10-08T02:18:43.299Z,17.30
2022-10-08T02:21:19.241Z,17.31
2022-10-08T02:23:56.600Z,17.30
2022-10-08T02:26:31.668Z,17.31
2022-10-08T02:29:06.191Z,17.32
2022-10-08T02:31:49.790Z,17.32
2022-10-08T02:34:32.699Z,17.34
2022-10-08T02:37:09.336Z,17.38
2022-10-08T02:39:39.420Z,17.41
2022-10-08T02:42:13.946Z,17.43
2022-10-08T02:44:45.167Z,17.50
2022-10-08T02:47:16.370Z,17.52
2022-10-08T02:49:50.026Z,17.58
2022-10-08T02:52:19.008Z,17.63
2022-10-08T02:54:48.259Z,17.68
2022-10-08T02:57:21.393Z,17.71
2022-10-08T02:59:48.382Z,17.76
2022-10-08T03:02:26.220Z,17.77
2022-10-08T03:05:01.619Z,17.80
2022-10-08T03:07:31.159Z,17.82
2022-10-08T03:09:59.297Z,17.86
2022-10-08T03:12:26.357Z,17.87
2022-10-08T03:14:53.879Z,17.90
2022-10-08T03:17:27.498Z,17.93
2022-10-08T03:19:54.647Z,17.97
2022-10-08T03:22:21.038Z,18.02
2022-10-08T03:24:47.445Z,18.07
2022-10-08T03:27:13.880Z,18.11
2022-10-08T03:29:41.309Z,18.14
2022-10-08T03:32:08.462Z,18.18
2022-10-08T03:34:34.977Z,18.22
2022-10-08T03:37:01.595Z,18.23
2022-10-08T03:39:27.978Z,18.25
2022-10-08T03:41:54.348Z,18.28
2022-10-08T03:44:20.706Z,18.29
2022-10-08T03:46:47.735Z,18.31
2022-10-08T03:49:14.108Z,18.31
2022-10-08T03:51:40.542Z,18.33
2022-10-08T03:54:08.286Z,18.34
2022-10-08T03:56:34.625Z,18.32
2022-10-08T03:59:01.159Z,18.30
2022-10-08T04:01:30.813Z,18.25
2022-10-08T04:03:57.320Z,18.22
2022-10-08T04:06:23.920Z,18.17
2022-10-08T04:08:50.301Z,18.12
2022-10-08T04:11:18.105Z,18.09
2022-10-08T04:13:44.765Z,18.06
2022-10-08T04:16:14.622Z,18.02
2022-10-08T04:18:41.895Z,17.99
2022-10-08T04:21:11.588Z,17.95
2022-10-08T04:23:39.591Z,17.93
2022-10-08T04:26:06.283Z,17.90
2022-10-08T04:28:37.567Z,17.88
2022-10-08T04:31:11.495Z,17.82
2022-10-08T04:33:38.110Z,17.81
2022-10-08T04:36:12.574Z,17.76
2022-10-08T04:38:38.924Z,17.78
2022-10-08T04:41:08.194Z,17.78
2022-10-08T04:43:37.016Z,17.78
2022-10-08T04:46:04.275Z,17.79
2022-10-08T04:48:31.044Z,17.79
2022-10-08T04:51:04.070Z,17.80
2022-10-08T04:53:32.924Z,17.81
2022-10-08T04:56:12.510Z,17.81
2022-10-08T04:58:40.090Z,17.83
2022-10-08T05:01:08.596Z,17.84
2022-10-08T05:03:39.640Z,17.84
2022-10-08T05:06:07.040Z,17.86
2022-10-08T05:08:33.725Z,17.88
2022-10-08T05:11:00.399Z,17.89
2022-10-08T05:13:27.039Z,17.91
2022-10-08T05:15:53.577Z,17.91
2022-10-08T05:18:19.940Z,17.93
2022-10-08T05:20:46.276Z,17.93
2022-10-08T05:23:13.448Z,17.96
2022-10-08T05:25:40.328Z,17.95
2022-10-08T05:28:06.909Z,17.97
2022-10-08T05:30:33.532Z,18.00
2022-10-08T05:33:00.153Z,18.01
2022-10-08T05:35:26.703Z,18.03
2022-10-08T05:37:53.037Z,18.03
2022-10-08T05:40:20.645Z,18.04
2022-10-08T05:42:47.304Z,18.05
2022-10-08T05:45:14.458Z,18.06
2022-10-08T05:47:41.488Z,18.06
2022-10-08T05:50:08.528Z,18.08
2022-10-08T05:52:34.850Z,18.08
2022-10-08T05:55:01.222Z,18.08
2022-10-08T05:57:27.957Z,18.08
2022-10-08T05:59:54.271Z,18.08
2022-10-08T06:02:21.223Z,18.06
2022-10-08T06:04:49.443Z,18.06
2022-10-08T06:07:16.468Z,18.06
2022-10-08T06:09:46.965Z,18.07
2022-10-08T06:12:14.196Z,18.08
2022-10-08T06:14:41.115Z,18.08
2022-10-08T06:17:07.570Z,18.09
2022-10-08T06:19:37.241Z,18.09
2022-10-08T06:22:06.864Z,18.09
2022-10-08T06:24:33.215Z,18.11
2022-10-08T06:26:59.622Z,18.12
2022-10-08T06:29:26.106Z,18.13
2022-10-08T06:31:52.716Z,18.15
2022-10-08T06:34:22.043Z,18.15
2022-10-08T06:36:48.439Z,18.15
2022-10-08T06:39:17.671Z,18.15
2022-10-08T06:41:44.484Z,18.18
2022-10-08T06:44:13.482Z,18.17
2022-10-08T06:46:40.155Z,18.19
2022-10-08T06:49:06.876Z,18.21
2022-10-08T06:51:33.603Z,18.21
2022-10-08T06:54:07.032Z,18.21
2022-10-08T06:56:36.328Z,18.23
2022-10-08T06:59:04.212Z,18.25
2022-10-08T07:01:33.925Z,18.24
2022-10-08T07:04:01.509Z,18.24
2022-10-08T07:06:28.707Z,18.25
2022-10-08T07:08:59.102Z,18.24
2022-10-08T07:11:26.586Z,18.25
2022-10-08T07:13:55.462Z,18.25
2022-10-08T07:16:24.217Z,18.27
2022-10-08T07:18:52.583Z,18.29
2022-10-08T07:21:21.393Z,18.31
2022-10-08T07:23:48.459Z,18.34
2022-10-08T07:26:23.003Z,18.33
2022-10-08T07:28:55.225Z,18.35
2022-10-08T07:31:24.662Z,18.37
2022-10-08T07:33:51.911Z,18.38
2022-10-08T07:36:20.492Z,18.37
2022-10-08T07:38:48.433Z,18.40
2022-10-08T07:41:14.920Z,18.44
2022-10-08T07:43:41.547Z,18.42
2022-10-08T07:46:10.226Z,18.41
2022-10-08T07:48:38.584Z,18.43
2022-10-08T07:51:15.538Z,18.43
2022-10-08T07:53:44.500Z,18.49
2022-10-08T07:56:12.950Z,18.49
2022-10-08T07:58:39.512Z,18.54
2022-10-08T08:01:08.791Z,18.57
2022-10-08T08:03:36.143Z,18.60
2022-10-08T08:06:09.552Z,18.65
2022-10-08T08:08:55.642Z,18.71
2022-10-08T08:11:23.961Z,18.77
2022-10-08T08:13:53.861Z,18.80
2022-10-08T08:16:26.807Z,18.83
2022-10-08T08:18:59.058Z,18.84
2022-10-08T08:21:28.296Z,18.88
2022-10-08T08:23:56.883Z,18.88
2022-10-08T08:26:32.863Z,18.91
2022-10-08T08:29:02.129Z,18.97
2022-10-08T08:31:36.276Z,18.97
2022-10-08T08:34:07.183Z,18.97
2022-10-08T08:36:40.809Z,18.98
2022-10-08T08:39:13.809Z,19.00
2022-10-08T08:41:55.666Z,19.03
2022-10-08T08:44:24.564Z,19.10
2022-10-08T08:47:17.253Z,19.15
2022-10-08T08:49:48.189Z,19.24
2022-10-08T08:52:17.905Z,19.29
2022-10-08T08:54:49.551Z,19.34
2022-10-08T08:57:34.184Z,19.38
2022-10-08T09:00:05.669Z,19.44
2022-10-08T09:02:38.291Z,19.49
2022-10-08T09:05:13.273Z,19.51
2022-10-08T09:08:05.964Z,19.53
2022-10-08T09:10:42.780Z,19.51
2022-10-08T09:13:32.033Z,19.48
2022-10-08T09:15:58.952Z,19.49
2022-10-08T09:18:25.491Z,19.44
2022-10-08T09:20:52.296Z,19.42
2022-10-08T09:23:22.773Z,19.41
2022-10-08T09:26:08.175Z,19.39
2022-10-08T09:28:55.679Z,19.43
2022-10-08T09:31:40.241Z,19.50
2022-10-08T09:34:15.875Z,19.57
2022-10-08T09:36:54.605Z,19.64
2022-10-08T09:39:26.453Z,19.72
2022-10-08T09:42:07.956Z,19.76
2022-10-08T09:44:52.313Z,19.79
2022-10-08T09:47:21.300Z,19.88
2022-10-08T09:50:07.488Z,19.88
2022-10-08T09:52:36.615Z,19.96
2022-10-08T09:55:09.541Z,20.00
2022-10-08T09:57:44.816Z,20.06
2022-10-08T10:00:37.145Z,20.11
2022-10-08T10:03:15.265Z,20.16
2022-10-08T10:05:41.811Z,20.21
2022-10-08T10:08:47.762Z,20.18
2022-10-08T10:11:41.929Z,20.24
2022-10-08T10:14:28.749Z,20.26
2022-10-08T10:17:06.168Z,20.29
2022-10-08T10:19:42.352Z,20.36
2022-10-08T10:22:19.429Z,20.38
2022-10-08T10:24:59.140Z,20.41
2022-10-08T10:27:42.982Z,20.42
2022-10-08T10:30:20.256Z,20.42
2022-10-08T10:32:53.097Z,20.41
2022-10-08T10:35:19.518Z,20.40
2022-10-08T10:37:54.804Z,20.35
2022-10-08T10:40:50.315Z,20.29
2022-10-08T10:43:50.608Z,20.31
2022-10-08T10:46:33.823Z,20.35
2022-10-08T10:49:00.829Z,20.41
2022-10-08T10:51:49.840Z,20.43
2022-10-08T10:54:42.999Z,20.53
2022-10-08T10:57:34.009Z,20.62
2022-10-08T11:00:07.282Z,20.70
2022-10-08T11:02:42.864Z,20.73
2022-10-08T11:05:33.263Z,20.74
2022-10-08T11:08:18.383Z,20.77
2022-10-08T11:11:09.116Z,20.87
2022-10-08T11:14:04.151Z,20.95
2022-10-08T11:16:48.667Z,21.04
2022-10-08T11:19:26.033Z,21.15
2022-10-08T11:22:25.199Z,21.22
2022-10-08T11:25:06.180Z,21.27
2022-10-08T11:27:50.845Z,21.34
2022-10-08T11:30:36.752Z,21.42
2022-10-08T11:33:05.026Z,21.51
2022-10-08T11:35:41.709Z,21.56
2022-10-08T11:38:17.019Z,21.59
2022-10-08T11:40:54.812Z,21.62
2022-10-08T11:43:37.456Z,21.62
2022-10-08T11:46:32.812Z,21.59
2022-10-08T11:49:24.037Z,21.57
2022-10-08T11:51:52.203Z,21.52
2022-10-08T11:54:29.017Z,21.48
2022-10-08T11:58:07.363Z,21.40
2022-10-08T12:00:40.734Z,21.40
2022-10-08T12:03:32.086Z,21.39
2022-10-08T12:06:13.474Z,21.43
2022-10-08T12:08:59.242Z,21.43
2022-10-08T12:11:31.753Z,21.47
2022-10-08T12:14:13.475Z,21.52
2022-10-08T12:16:49.080Z,21.57
2022-10-08T12:19:35.184Z,21.60
2022-10-08T12:22:25.451Z,21.64
2022-10-08T12:25:01.092Z,21.71
2022-10-08T12:27:31.082Z,21.74
2022-10-08T12:30:02.029Z,21.76
2022-10-08T12:32:43.959Z,21.76
2022-10-08T12:35:31.355Z,21.80
2022-10-08T12:38:08.954Z,21.89
2022-10-08T12:40:48.675Z,21.92
2022-10-08T12:43:47.873Z,21.95
2022-10-08T12:46:33.440Z,22.00
2022-10-08T12:49:21.739Z,21.98
2022-10-08T12:52:04.316Z,22.02
2022-10-08T12:54:32.291Z,22.01
2022-10-08T12:57:00.972Z,22.02
2022-10-08T12:59:32.158Z,22.01
2022-10-08T13:01:59.159Z,22.03
2022-10-08T13:04:29.859Z,22.03
2022-10-08T13:06:56.649Z,22.05
2022-10-08T13:09:26.624Z,22.07
2022-10-08T13:12:02.915Z,22.10
2022-10-08T13:14:32.109Z,22.13
2022-10-08T13:16:59.002Z,22.16
2022-10-08T13:19:35.196Z,22.14
2022-10-08T13:22:24.353Z,22.16
2022-10-08T13:24:51.072Z,22.21
2022-10-08T13:27:27.569Z,22.17
2022-10-08T13:29:55.552Z,22.23
2022-10-08T13:32:35.224Z,22.24
2022-10-08T13:35:04.655Z,22.27
2022-10-08T13:37:38.116Z,22.27
2022-10-08T13:40:13.520Z,22.23
2022-10-08T13:42:43.282Z,22.21
2022-10-08T13:45:24.586Z,22.14
2022-10-08T13:47:51.847Z,22.13
2022-10-08T13:50:19.420Z,22.07
2022-10-08T13:52:55.564Z,22.03
2022-10-08T13:55:29.277Z,22.02
2022-10-08T13:57:57.647Z,22.01
2022-10-08T14:00:24.056Z,21.99
2022-10-08T14:02:51.607Z,21.96
2022-10-08T14:05:19.070Z,21.91
2022-10-08T14:07:47.833Z,21.88
2022-10-08T14:10:14.882Z,21.84
2022-10-08T14:12:41.675Z,21.80
2022-10-08T14:15:11.636Z,21.77
2022-10-08T14:17:38.541Z,21.75
2022-10-08T14:20:05.451Z,21.72
2022-10-08T14:22:38.582Z,21.68
2022-10-08T14:25:15.633Z,21.60
2022-10-08T14:27:42.078Z,21.60
2022-10-08T14:30:10.608Z,21.55
2022-10-08T14:32:36.900Z,21.55
2022-10-08T14:35:04.714Z,21.57
2022-10-08T14:37:31.159Z,21.56
2022-10-08T14:39:57.568Z,21.53
2022-10-08T14:42:24.069Z,21.52
2022-10-08T14:44:51.614Z,21.51
2022-10-08T14:47:17.959Z,21.51
2022-10-08T14:49:44.483Z,21.53
2022-10-08T14:52:11.192Z,21.55
2022-10-08T14:54:37.686Z,21.56
2022-10-08T14:57:04.229Z,21.58
2022-10-08T14:59:30.560Z,21.61
2022-10-08T15:01:56.985Z,21.63
2022-10-08T15:04:23.320Z,21.66
2022-10-08T15:06:49.665Z,21.69
2022-10-08T15:09:16.727Z,21.73
2022-10-08T15:11:43.121Z,21.80
2022-10-08T15:14:09.664Z,21.85
2022-10-08T15:16:36.142Z,21.89
2022-10-08T15:19:02.480Z,21.92
2022-10-08T15:21:28.789Z,21.94
2022-10-08T15:23:56.774Z,21.94
2022-10-08T15:26:23.084Z,21.93
2022-10-08T15:28:52.989Z,21.92
2022-10-08T15:31:22.624Z,21.88
2022-10-08T15:33:51.007Z,21.86
2022-10-08T15:36:28.325Z,21.81
2022-10-08T15:39:03.441Z,21.78
2022-10-08T15:41:33.687Z,21.76
2022-10-08T15:44:31.247Z,21.70
2022-10-08T15:47:04.332Z,21.68
2022-10-08T15:49:31.754Z,21.67
2022-10-08T15:51:58.655Z,21.62
2022-10-08T15:54:25.059Z,21.60
2022-10-08T15:56:51.347Z,21.54
2022-10-08T15:59:17.815Z,21.50
2022-10-08T16:01:44.160Z,21.47
2022-10-08T16:04:14.134Z,21.42
2022-10-08T16:06:45.521Z,21.38
2022-10-08T16:09:16.659Z,21.34
2022-10-08T16:11:44.178Z,21.30
2022-10-08T16:14:19.288Z,21.24
2022-10-08T16:16:46.309Z,21.22
2022-10-08T16:19:16.437Z,21.16
2022-10-08T16:21:44.287Z,21.11
2022-10-08T16:24:11.023Z,21.05
2022-10-08T16:26:39.783Z,20.99
2022-10-08T16:29:09.071Z,20.95
2022-10-08T16:31:37.564Z,20.92
2022-10-08T16:34:11.384Z,20.86
2022-10-08T16:36:38.014Z,20.80
2022-10-08T16:39:06.282Z,20.76
2022-10-08T16:41:34.456Z,20.70
2022-10-08T16:44:12.947Z,20.64
2022-10-08T16:46:41.994Z,20.62
2022-10-08T16:49:18.336Z,20.56
2022-10-08T16:51:47.808Z,20.52
2022-10-08T16:54:15.907Z,20.47
2022-10-08T16:56:44.382Z,20.43
2022-10-08T16:59:14.268Z,20.37
2022-10-08T17:01:42.852Z,20.32
2022-10-08T17:04:09.468Z,20.29
2022-10-08T17:06:36.186Z,20.26
2022-10-08T17:09:04.112Z,20.19
2022-10-08T17:11:30.867Z,20.14
2022-10-08T17:13:58.253Z,20.06
2022-10-08T17:16:26.574Z,20.01
2022-10-08T17:18:55.162Z,19.96
2022-10-08T17:21:22.895Z,19.92
2022-10-08T17:23:50.062Z,19.88
2022-10-08T17:26:20.039Z,19.81
2022-10-08T17:28:48.228Z,19.76
2022-10-08T17:31:18.026Z,19.68
2022-10-08T17:33:44.969Z,19.65
2022-10-08T17:36:17.223Z,19.57
2022-10-08T17:38:45.685Z,19.52
2022-10-08T17:41:24.555Z,19.45
2022-10-08T17:43:51.595Z,19.42
2022-10-08T17:46:21.300Z,19.38
2022-10-08T17:48:48.292Z,19.32
2022-10-08T17:51:17.693Z,19.25
2022-10-08T17:53:45.651Z,19.18
2022-10-08T17:56:13.549Z,19.10
2022-10-08T17:58:40.250Z,19.05
2022-10-08T18:01:12.630Z,18.95
2022-10-08T18:03:40.865Z,18.87
2022-10-08T18:06:09.223Z,18.81
2022-10-08T18:08:36.035Z,18.74
2022-10-08T18:11:08.536Z,18.65
2022-10-08T18:13:35.603Z,18.60
2022-10-08T18:16:04.762Z,18.53
2022-10-08T18:18:31.501Z,18.46
2022-10-08T18:20:59.164Z,18.40
2022-10-08T18:23:27.249Z,18.35
2022-10-08T18:25:54.153Z,18.31
2022-10-08T18:28:21.825Z,18.24
2022-10-08T18:30:48.558Z,18.19
2022-10-08T18:33:15.311Z,18.13
2022-10-08T18:35:43.406Z,18.08
2022-10-08T18:38:09.701Z,18.03
2022-10-08T18:40:36.064Z,17.98
2022-10-08T18:43:02.356Z,17.91
2022-10-08T18:45:28.748Z,17.87
2022-10-08T18:47:55.242Z,17.83
2022-10-08T18:50:21.549Z,17.78
2022-10-08T18:52:48.102Z,17.75
2022-10-08T18:55:14.619Z,17.70
2022-10-08T18:57:41.101Z,17.67
2022-10-08T19:00:08.280Z,17.64
2022-10-08T19:02:34.691Z,17.59
2022-10-08T19:05:01.080Z,17.56
2022-10-08T19:07:27.415Z,17.52
2022-10-08T19:09:53.764Z,17.47
2022-10-08T19:12:20.324Z,17.43
2022-10-08T19:14:47.219Z,17.37
2022-10-08T19:17:13.577Z,17.35
2022-10-08T19:19:39.946Z,17.32
2022-10-08T19:22:06.318Z,17.27
2022-10-08T19:24:32.615Z,17.23
2022-10-08T19:26:59.162Z,17.17
2022-10-08T19:29:29.501Z,17.11
2022-10-08T19:31:56.477Z,17.05
2022-10-08T19:34:25.493Z,17.00
2022-10-08T19:36:52.636Z,16.98
2022-10-08T19:39:22.248Z,16.91
2022-10-08T19:41:49.601Z,16.89
2022-10-08T19:44:16.922Z,16.85
2022-10-08T19:46:44.135Z,16.82
2022-10-08T19:49:10.902Z,16.80
2022-10-08T19:51:37.864Z,16.76
2022-10-08T19:54:04.764Z,16.73
2022-10-08T19:56:31.655Z,16.69
2022-10-08T19:58:58.276Z,16.66
2022-10-08T20:01:35.998Z,16.60
2022-10-08T20:04:04.893Z,16.60
2022-10-08T20:06:33.459Z,16.58
2022-10-08T20:09:01.015Z,16.56
2022-10-08T20:11:29.141Z,16.56
2022-10-08T20:13:56.321Z,16.52
2022-10-08T20:16:28.517Z,16.47
2022-10-08T20:19:01.547Z,16.44
2022-10-08T20:21:30.132Z,16.41
2022-10-08T20:23:56.785Z,16.38
2022-10-08T20:26:31.646Z,16.37
2022-10-08T20:29:05.079Z,16.31
2022-10-08T20:31:34.202Z,16.26
2022-10-08T20:34:03.693Z,16.20
2022-10-08T20:36:31.141Z,16.14
2022-10-08T20:38:58.136Z,16.11
2022-10-08T20:41:30.402Z,16.07
2022-10-08T20:44:00.413Z,16.03
2022-10-08T20:46:27.163Z,16.02
2022-10-08T20:48:53.598Z,15.98
2022-10-08T20:51:23.335Z,15.94
2022-10-08T20:54:11.612Z,15.89
2022-10-08T20:56:40.378Z,15.90
2022-10-08T20:59:13.810Z,15.88
2022-10-08T21:01:40.222Z,15.87
2022-10-08T21:04:07.666Z,15.84
2022-10-08T21:06:39.738Z,15.81
2022-10-08T21:09:07.515Z,15.82
2022-10-08T21:11:35.098Z,15.79
2022-10-08T21:14:03.433Z,15.75
2022-10-08T21:16:32.922Z,15.71
2022-10-08T21:19:02.113Z,15.67
2022-10-08T21:21:31.569Z,15.62
2022-10-08T21:23:59.049Z,15.62
2022-10-08T21:26:30.919Z,15.59
2022-10-08T21:28:59.664Z,15.57
2022-10-08T21:31:27.932Z,15.56
2022-10-08T21:33:55.559Z,15.54
2022-10-08T21:36:25.712Z,15.49
2022-10-08T21:38:52.365Z,15.48
2022-10-08T21:41:21.646Z,15.46
2022-10-08T21:43:56.792Z,15.42
2022-10-08T21:46:26.074Z,15.41
2022-10-08T21:49:05.464Z,15.37
2022-10-08T21:51:33.636Z,15.36
2022-10-08T21:54:02.058Z,15.33
2022-10-08T21:56:31.345Z,15.30
2022-10-08T21:58:59.769Z,15.27
2022-10-08T22:01:37.082Z,15.25
2022-10-08T22:04:06.214Z,15.25
2022-10-08T22:06:37.313Z,15.21
2022-10-08T22:09:10.586Z,15.18
2022-10-08T22:11:37.455Z,15.17
2022-10-08T22:14:04.517Z,15.14
2022-10-08T22:16:31.031Z,15.12
2022-10-08T22:18:58.183Z,15.11
2022-10-08T22:21:24.935Z,15.08
2022-10-08T22:23:52.593Z,15.06
2022-10-08T22:26:22.702Z,15.03
2022-10-08T22:28:50.514Z,15.02
2022-10-08T22:31:18.774Z,15.00
2022-10-08T22:33:45.637Z,14.97
2022-10-08T22:36:15.424Z,14.95
2022-10-08T22:38:44.292Z,14.93
2022-10-08T22:41:16.696Z,14.90
2022-10-08T22:43:43.810Z,14.89
2022-10-08T22:46:13.462Z,14.87
2022-10-08T22:48:40.439Z,14.85
2022-10-08T22:51:10.787Z,14.81
2022-10-08T22:53:37.782Z,14.82
2022-10-08T22:56:06.496Z,14.78
2022-10-08T22:58:34.130Z,14.77
2022-10-08T23:01:12.284Z,14.75
2022-10-08T23:03:39.161Z,14.74
2022-10-08T23:06:21.976Z,14.71
2022-10-08T23:08:54.723Z,14.69
2022-10-08T23:11:21.444Z,14.68
2022-10-08T23:13:56.163Z,14.65
2022-10-08T23:16:24.105Z,14.66
2022-10-08T23:19:01.726Z,14.64
2022-10-08T23:21:28.627Z,14.65
2022-10-08T23:23:55.975Z,14.64
2022-10-08T23:26:23.833Z,14.63
2022-10-08T23:28:52.235Z,14.60
2022-10-08T23:31:20.994Z,14.58
2022-10-08T23:33:48.920Z,14.57
2022-10-08T23:36:18.788Z,14.56
2022-10-08T23:38:45.590Z,14.54
2022-10-08T23:41:12.638Z,14.50
2022-10-08T23:43:42.048Z,14.46
2022-10-08T23:46:10.586Z,14.44
2022-10-08T23:48:37.600Z,14.44
2022-10-08T23:51:05.789Z,14.44
2022-10-08T23:53:33.316Z,14.40
2022-10-08T23:55:59.704Z,14.37
2022-10-08T23:58:26.399Z,14.33
